Time;durP1;ratioP1;P1;durP2;ratioP2;P2;SDS_P1;SDS_P2;PMS_P1;PMS_P2;Temp;Humidity;BMP_temperature;BMP_pressure;BME280_temperature;BME280_humidity;BME280_pressure;Samples;Min_cycle;Max_cycle;Signal;HPM_P1;HPM_P2
2022/10/18 00:00:17;;;;;;;17.65;6.62;;;;;;;16.61;51.13;100070.87;4464421;32;20126;-83
2022/10/18 00:02:43;;;;;;;15.23;7.03;;;;;;;16.63;51.13;100060.97;4459965;32;20143;-82
2022/10/18 00:05:09;;;;;;;17.85;6.78;;;;;;;16.60;51.19;100066.47;4468211;32;20440;-83
2022/10/18 00:07:34;;;;;;;16.33;7.05;;;;;;;16.56;51.40;100061.44;4460234;32;20088;-83
2022/10/18 00:09:59;;;;;;;15.90;7.10;;;;;;;16.59;51.27;100058.56;4464488;32;20429;-83
2022/10/18 00:12:25;;;;;;;14.63;6.22;;;;;;;16.57;51.39;100060.47;4465534;32;20127;-83
2022/10/18 00:14:50;;;;;;;15.80;7.20;;;;;;;16.61;51.21;100065.53;4458481;32;20085;-82
2022/10/18 00:17:16;;;;;;;14.93;6.78;;;;;;;16.64;51.07;100054.69;4468191;32;20209;-83
2022/10/18 00:19:41;;;;;;;13.62;6.85;;;;;;;16.69;50.97;100055.28;4460414;32;20126;-84
2022/10/18 00:22:07;;;;;;;14.27;6.85;;;;;;;16.64;51.14;100046.72;4464001;32;20480;-85
2022/10/18 00:24:32;;;;;;;14.80;6.47;;;;;;;16.62;51.15;100050.44;4464409;32;20127;-85
2022/10/18 00:26:57;;;;;;;13.68;7.00;;;;;;;16.67;50.99;100051.88;4458671;32;20122;-83
2022/10/18 00:29:23;;;;;;;16.60;7.30;;;;;;;16.64;51.02;100046.72;4467726;32;20089;-83
2022/10/18 00:31:48;;;;;;;14.38;6.65;;;;;;;16.65;51.10;100048.44;4461465;32;20111;-85
2022/10/18 00:34:15;;;;;;;14.23;6.60;;;;;;;16.65;51.22;100050.22;4462483;32;20116;-85
2022/10/18 00:36:41;;;;;;;16.00;7.78;;;;;;;16.65;51.24;100047.56;4465713;32;20115;-84
2022/10/18 00:39:08;;;;;;;16.17;7.00;;;;;;;16.61;51.32;100049.56;4456802;32;20460;-83
2022/10/18 00:41:35;;;;;;;17.85;8.07;;;;;;;16.58;51.37;100046.25;4467158;32;20094;-84
2022/10/18 00:44:05;;;;;;;16.23;7.95;;;;;;;16.58;51.45;100043.59;4462029;32;20428;-83
2022/10/18 00:46:33;;;;;;;18.67;9.30;;;;;;;16.60;51.40;100045.19;4461109;32;20147;-83
2022/10/18 00:49:02;;;;;;;19.08;9.15;;;;;;;16.50;51.62;100041.38;4466885;32;20160;-83
2022/10/18 00:51:31;;;;;;;20.17;10.07;;;;;;;16.49;51.70;100040.50;4457994;32;20131;-82
2022/10/18 00:53:56;;;;;;;18.05;9.18;;;;;;;16.40;51.99;100040.19;4462951;32;20569;-85
2022/10/18 00:56:22;;;;;;;19.15;9.30;;;;;;;16.42;51.99;100033.84;4464841;32;20089;-86
2022/10/18 00:58:48;;;;;;;20.37;9.82;;;;;;;16.40;52.12;100029.53;4457715;32;20433;-85
2022/10/18 01:01:13;;;;;;;19.20;9.90;;;;;;;16.43;52.05;100032.03;4467314;32;20166;-85
2022/10/18 01:03:40;;;;;;;18.35;10.05;;;;;;;16.42;51.95;100027.69;4458311;32;20376;-85
2022/10/18 01:06:07;;;;;;;17.35;9.80;;;;;;;16.41;51.99;100025.94;4463728;32;20164;-86
2022/10/18 01:08:48;;;;;;;20.17;9.80;;;;;;;16.38;52.12;100028.78;4464273;32;20703;-84
2022/10/18 01:11:41;;;;;;;20.35;10.00;;;;;;;16.36;52.15;100020.91;4457110;32;20131;-86
2022/10/18 01:14:06;;;;;;;18.12;10.27;;;;;;;16.36;52.17;100025.34;4463755;32;20162;-85
2022/10/18 01:16:40;;;;;;;19.87;10.68;;;;;;;16.29;52.33;100016.87;4465589;32;20424;-86
2022/10/18 01:19:15;;;;;;;20.23;10.55;;;;;;;16.27;52.46;100018.78;4456749;32;20085;-84
2022/10/18 01:21:55;;;;;;;18.75;10.65;;;;;;;16.28;52.46;100015.16;4465910;32;20096;-84
2022/10/18 01:24:27;;;;;;;19.80;10.32;;;;;;;16.26;52.49;100009.09;4464383;32;20093;-84
2022/10/18 01:27:11;;;;;;;23.08;10.63;;;;;;;16.24;52.47;100009.16;4457035;32;20093;-84
2022/10/18 01:30:07;;;;;;;21.10;10.68;;;;;;;16.21;52.63;100006.69;4455819;32;20077;-83
2022/10/18 01:32:41;;;;;;;19.73;10.82;;;;;;;16.20;52.67;99998.81;4461514;32;20161;-83
2022/10/18 01:35:12;;;;;;;23.70;12.27;;;;;;;16.16;52.79;100003.44;4442570;32;20158;-83
2022/10/18 01:37:38;;;;;;;21.80;11.52;;;;;;;16.10;52.99;100001.16;4465019;32;20186;-84
2022/10/18 01:40:06;;;;;;;20.88;12.02;;;;;;;16.14;52.78;100001.84;4461706;32;20081;-84
2022/10/18 01:42:31;;;;;;;21.77;12.23;;;;;;;16.03;53.04;99998.00;4458801;32;20092;-84
2022/10/18 01:44:58;;;;;;;22.67;11.38;;;;;;;16.02;53.13;99995.44;4455167;32;20164;-85
2022/10/18 01:47:24;;;;;;;20.88;10.70;;;;;;;16.07;53.06;99985.37;4466663;32;20101;-84
2022/10/18 01:49:57;;;;;;;23.50;11.95;;;;;;;16.09;53.02;99986.16;4459681;32;20085;-86
2022/10/18 01:52:22;;;;;;;22.00;11.55;;;;;;;16.06;53.09;99981.88;4460180;32;20100;-84
2022/10/18 01:54:48;;;;;;;22.62;11.12;;;;;;;16.02;53.24;99990.12;4465540;32;20108;-84
2022/10/18 01:57:35;;;;;;;21.90;11.52;;;;;;;16.04;53.10;99975.78;4456562;32;20115;-85
2022/10/18 02:00:10;;;;;;;22.90;11.52;;;;;;;16.01;53.24;99980.41;4463883;32;20085;-85
2022/10/18 02:02:48;;;;;;;21.75;11.68;;;;;;;16.01;53.21;99972.44;4464585;32;20482;-85
2022/10/18 02:05:23;;;;;;;21.05;10.77;;;;;;;15.99;53.31;99977.84;4457378;32;20153;-84
2022/10/18 02:07:51;;;;;;;22.15;11.40;;;;;;;15.89;53.48;99974.00;4463825;32;20102;-84
2022/10/18 02:10:22;;;;;;;20.58;10.43;;;;;;;16.01;53.16;99965.34;4463484;32;20144;-83
2022/10/18 02:12:48;;;;;;;20.88;10.52;;;;;;;15.99;53.22;99969.00;4457675;32;20105;-84
2022/10/18 02:15:16;;;;;;;19.48;10.52;;;;;;;15.98;53.19;99976.13;4453300;32;20178;-85
2022/10/18 02:17:43;;;;;;;19.37;10.32;;;;;;;15.96;53.26;99971.88;4458949;32;20334;-84
2022/10/18 02:20:09;;;;;;;21.23;10.55;;;;;;;16.04;53.14;99977.59;4461382;32;20081;-83
2022/10/18 02:22:36;;;;;;;17.27;9.93;;;;;;;15.99;53.19;99964.56;4465673;32;21976;-84
2022/10/18 02:25:05;;;;;;;20.10;9.93;;;;;;;15.91;53.27;99962.34;4456353;32;20101;-84
2022/10/18 02:27:30;;;;;;;21.42;10.60;;;;;;;15.89;53.37;99969.53;4466347;32;20080;-84
2022/10/18 02:29:56;;;;;;;18.52;10.57;;;;;;;15.86;53.42;99972.41;4461180;32;20132;-83
2022/10/18 02:32:40;;;;;;;21.12;10.07;;;;;;;15.86;53.42;99975.06;4460043;32;20400;-83
2022/10/18 02:35:19;;;;;;;20.05;10.57;;;;;;;15.87;53.40;99974.09;4466146;32;20185;-82
2022/10/18 02:37:46;;;;;;;19.33;9.80;;;;;;;15.84;53.48;99970.75;4458882;32;20084;-82
2022/10/18 02:40:13;;;;;;;21.20;10.35;;;;;;;15.83;53.59;99972.56;4460243;32;20486;-82
2022/10/18 02:42:47;;;;;;;20.02;10.70;;;;;;;15.81;53.64;99984.22;4464327;32;20108;-82
2022/10/18 02:45:13;;;;;;;19.92;10.75;;;;;;;15.83;53.68;99982.34;4455855;32;20097;-83
2022/10/18 02:47:38;;;;;;;21.48;11.05;;;;;;;15.81;53.73;99979.75;4464572;32;20111;-83
2022/10/18 02:50:04;;;;;;;23.02;11.52;;;;;;;15.78;53.76;99971.09;4461719;32;20116;-83
2022/10/18 02:52:30;;;;;;;21.85;11.18;;;;;;;15.77;53.85;99972.06;4459872;32;20220;-83
2022/10/18 02:54:55;;;;;;;20.75;11.57;;;;;;;15.74;53.86;99981.03;4467052;32;20103;-83
2022/10/18 02:57:21;;;;;;;20.35;10.98;;;;;;;15.76;53.78;99975.66;4456998;32;20096;-82
2022/10/18 02:59:46;;;;;;;20.73;10.82;;;;;;;15.75;53.86;99972.16;4464736;32;20111;-84
2022/10/18 03:02:11;;;;;;;18.30;9.88;;;;;;;15.70;53.96;99969.72;4462224;32;20104;-83
2022/10/18 03:04:37;;;;;;;22.37;10.85;;;;;;;15.72;53.87;99973.16;4458722;32;20492;-83
2022/10/18 03:07:02;;;;;;;20.05;11.23;;;;;;;15.68;53.94;99976.94;4466868;32;20081;-83
2022/10/18 03:09:28;;;;;;;19.92;11.00;;;;;;;15.63;54.14;99973.66;4456357;32;20428;-84
2022/10/18 03:11:53;;;;;;;20.48;11.20;;;;;;;15.65;54.09;99984.22;4463738;32;20121;-83
2022/10/18 03:14:18;;;;;;;22.42;11.57;;;;;;;15.60;54.17;99983.59;4461981;32;20420;-83
2022/10/18 03:16:44;;;;;;;20.75;11.07;;;;;;;15.62;54.08;99979.91;4458069;32;20113;-84
2022/10/18 03:19:09;;;;;;;17.30;10.40;;;;;;;15.57;54.16;99978.47;4467300;32;20462;-84
2022/10/18 03:21:38;;;;;;;17.85;10.52;;;;;;;15.59;54.10;99988.06;4458436;32;20365;-83
2022/10/18 03:24:04;;;;;;;23.58;10.75;;;;;;;15.61;54.05;99985.34;4462554;32;20089;-84
2022/10/18 03:26:29;;;;;;;21.17;11.73;;;;;;;15.60;54.09;99991.56;4462845;32;20127;-82
2022/10/18 03:28:54;;;;;;;20.58;11.23;;;;;;;15.52;54.28;99995.50;4457337;32;20130;-84
2022/10/18 03:31:20;;;;;;;21.65;10.77;;;;;;;15.43;54.56;99985.44;4466826;32;20174;-82
2022/10/18 03:33:45;;;;;;;21.25;11.15;;;;;;;15.19;55.36;99989.41;4458440;32;20224;-83
2022/10/18 03:36:11;;;;;;;19.45;11.20;;;;;;;15.32;54.87;99990.47;4461523;32;20109;-83
2022/10/18 03:38:36;;;;;;;22.62;11.43;;;;;;;15.36;54.75;99997.31;4464957;32;20133;-82
2022/10/18 03:41:02;;;;;;;20.75;10.63;;;;;;;15.42;54.60;99990.81;4455061;32;20081;-83
2022/10/18 03:43:27;;;;;;;21.15;10.95;;;;;;;15.34;54.86;99988.59;4464906;32;20135;-82
2022/10/18 03:45:53;;;;;;;21.45;11.15;;;;;;;15.36;54.80;99992.00;4459349;32;20108;-82
2022/10/18 03:48:18;;;;;;;21.77;11.27;;;;;;;15.35;54.86;99990.28;4460740;32;20085;-82
2022/10/18 03:50:43;;;;;;;20.10;11.07;;;;;;;15.34;54.86;99994.75;4465496;32;20368;-83
2022/10/18 03:53:09;;;;;;;21.05;11.55;;;;;;;15.36;54.85;99996.47;4458894;32;20154;-84
2022/10/18 03:55:36;;;;;;;21.70;11.27;;;;;;;15.35;54.85;99998.25;4467231;32;20158;-84
2022/10/18 03:58:01;;;;;;;21.52;11.40;;;;;;;15.36;54.89;99999.97;4461742;32;20127;-83
2022/10/18 04:00:27;;;;;;;19.23;10.95;;;;;;;15.34;54.89;99993.87;4460248;32;20105;-84
2022/10/18 04:02:52;;;;;;;19.08;10.93;;;;;;;15.32;54.98;99996.62;4468568;32;20407;-86
2022/10/18 04:05:18;;;;;;;19.55;10.82;;;;;;;15.30;55.04;99993.19;4458353;32;20451;-86
2022/10/18 04:07:43;;;;;;;22.45;10.90;;;;;;;15.31;55.07;99988.72;4466997;32;20151;-85
2022/10/18 04:10:09;;;;;;;19.58;9.98;;;;;;;15.29;55.12;99988.81;4463296;32;20146;-85
2022/10/18 04:12:34;;;;;;;21.77;10.88;;;;;;;15.27;55.13;99984.53;4459930;32;20105;-83
2022/10/18 04:15:00;;;;;;;21.17;10.45;;;;;;;15.25;55.20;99986.44;4468751;32;20170;-84
2022/10/18 04:17:25;;;;;;;22.55;11.93;;;;;;;15.20;55.37;99984.03;4459163;32;20107;-84
2022/10/18 04:19:51;;;;;;;18.42;10.75;;;;;;;15.14;55.58;99982.56;4465501;32;20441;-84
2022/10/18 04:22:16;;;;;;;18.98;10.20;;;;;;;15.19;55.48;99978.81;4464559;32;20115;-85
2022/10/18 04:24:41;;;;;;;25.52;10.73;;;;;;;15.19;55.58;99973.50;4459482;32;20092;-81
2022/10/18 04:27:07;;;;;;;17.95;10.10;;;;;;;15.22;55.50;99970.66;4468820;32;20133;-82
2022/10/18 04:29:33;;;;;;;19.80;10.63;;;;;;;15.26;55.17;99973.06;4459665;32;20093;-82
2022/10/18 04:31:58;;;;;;;26.40;9.95;;;;;;;15.26;55.03;99972.19;4465000;32;20097;-82
2022/10/18 04:34:24;;;;;;;17.55;8.52;;;;;;;15.26;54.45;99967.75;4463435;32;20467;-82
2022/10/18 04:36:49;;;;;;;15.55;8.15;;;;;;;15.22;54.17;99974.19;4461113;32;20125;-83
2022/10/18 04:39:15;;;;;;;19.73;8.88;;;;;;;15.20;53.76;99975.19;4462174;32;20101;-83
2022/10/18 04:41:40;;;;;;;18.05;8.57;;;;;;;15.23;53.49;99969.72;4460719;32;20399;-81
2022/10/18 04:44:06;;;;;;;18.05;9.45;;;;;;;15.20;53.43;99969.87;4462211;32;20342;-81
2022/10/18 04:46:31;;;;;;;22.20;9.80;;;;;;;15.21;53.48;99966.31;4465650;32;20134;-81
2022/10/18 04:48:57;;;;;;;17.55;9.43;;;;;;;15.23;53.50;99964.41;4456747;32;20094;-80
2022/10/18 04:51:22;;;;;;;18.35;10.05;;;;;;;15.24;53.53;99951.06;4468638;32;20141;-82
2022/10/18 04:53:48;;;;;;;18.67;9.38;;;;;;;15.23;53.68;99952.00;4461022;32;20115;-82
2022/10/18 04:56:13;;;;;;;19.87;10.45;;;;;;;15.23;53.70;99949.34;4461873;32;20417;-82
2022/10/18 04:58:38;;;;;;;19.75;10.20;;;;;;;15.21;53.79;99950.38;4465713;32;20145;-82
2022/10/18 05:01:05;;;;;;;18.15;9.45;;;;;;;15.20;53.94;99948.66;4461877;32;20088;-83
2022/10/18 05:03:31;;;;;;;19.73;10.40;;;;;;;15.23;54.04;99953.78;4460967;32;20080;-85
2022/10/18 05:05:56;;;;;;;22.33;10.20;;;;;;;15.24;54.16;99943.09;4464786;32;20085;-84
2022/10/18 05:08:22;;;;;;;19.17;9.70;;;;;;;15.24;54.14;99945.75;4456659;32;20123;-83
2022/10/18 05:10:47;;;;;;;17.95;9.88;;;;;;;15.23;54.09;99944.03;4465010;32;20439;-82
2022/10/18 05:13:12;;;;;;;21.20;10.05;;;;;;;15.19;54.08;99947.81;4462122;32;20137;-84
2022/10/18 05:15:38;;;;;;;18.00;9.82;;;;;;;15.21;54.01;99942.41;4457862;32;20085;-82
2022/10/18 05:18:03;;;;;;;17.45;9.88;;;;;;;15.19;54.09;99945.13;4463147;32;20151;-83
2022/10/18 05:20:29;;;;;;;20.60;10.18;;;;;;;15.29;53.99;99950.78;4463683;32;20428;-84
2022/10/18 05:22:54;;;;;;;19.52;9.77;;;;;;;15.20;54.36;99948.66;4462326;32;20093;-87
2022/10/18 05:25:19;;;;;;;20.77;10.45;;;;;;;15.05;54.96;99953.88;4463739;32;20093;-84
2022/10/18 05:27:45;;;;;;;21.45;10.48;;;;;;;15.16;54.86;99947.94;4459843;32;20100;-85
2022/10/18 05:30:10;;;;;;;20.02;10.43;;;;;;;15.24;54.77;99952.84;4455839;32;20100;-85
2022/10/18 05:32:36;;;;;;;20.85;10.57;;;;;;;15.29;54.61;99958.75;4464143;32;20088;-87
2022/10/18 05:35:01;;;;;;;19.77;10.57;;;;;;;15.25;54.69;99959.88;4462825;32;20099;-88
2022/10/18 05:37:26;;;;;;;19.95;10.43;;;;;;;15.27;54.67;99961.50;4458981;32;20097;-87
2022/10/18 05:39:52;;;;;;;19.30;10.95;;;;;;;15.30;54.72;99955.19;4455940;32;20080;-91
2022/10/18 05:42:17;;;;;;;22.62;10.23;;;;;;;15.32;54.71;99948.00;4455946;32;20220;-90
2022/10/18 05:44:43;;;;;;;18.70;10.32;;;;;;;15.38;54.59;99952.09;4455952;32;20124;-91
2022/10/18 05:47:08;;;;;;;23.30;9.85;;;;;;;15.40;54.70;99951.06;4456137;32;20093;-89
2022/10/18 05:49:34;;;;;;;25.83;10.38;;;;;;;15.43;54.75;99950.91;4455659;32;20157;-88
2022/10/18 05:52:00;;;;;;;20.48;10.32;;;;;;;15.43;54.83;99958.88;4458552;32;20119;-81
2022/10/18 05:54:25;;;;;;;20.75;10.75;;;;;;;15.45;55.01;99959.62;4471410;32;20077;-83
2022/10/18 05:56:51;;;;;;;19.48;9.88;;;;;;;15.53;55.02;99952.09;4470589;32;20143;-83
2022/10/18 05:59:16;;;;;;;21.27;11.77;;;;;;;15.67;54.75;99959.28;4470503;32;20093;-83
2022/10/18 06:01:42;;;;;;;20.92;11.48;;;;;;;15.77;54.73;99951.66;4469712;32;20334;-82
2022/10/18 06:04:09;;;;;;;20.15;11.27;;;;;;;15.83;54.62;99951.31;4471033;32;20103;-83
2022/10/18 06:06:34;;;;;;;19.42;10.68;;;;;;;15.88;54.62;99951.91;4471173;32;20101;-82
2022/10/18 06:09:02;;;;;;;20.58;11.48;;;;;;;15.97;54.28;99960.28;4471051;32;20085;-82
2022/10/18 06:11:28;;;;;;;21.02;11.63;;;;;;;16.07;53.87;99954.34;4471418;32;20565;-82
2022/10/18 06:13:53;;;;;;;20.67;11.73;;;;;;;16.07;53.65;99958.78;4470357;32;20115;-82
2022/10/18 06:16:20;;;;;;;23.20;11.85;;;;;;;16.12;53.65;99954.91;4470189;32;20372;-83
2022/10/18 06:18:48;;;;;;;22.23;12.20;;;;;;;16.13;53.57;99953.13;4471296;32;20096;-83
2022/10/18 06:21:13;;;;;;;28.27;12.90;;;;;;;16.26;53.40;99964.75;4468491;32;20088;-82
2022/10/18 06:23:39;;;;;;;23.75;12.13;;;;;;;16.35;53.13;99962.50;4454380;32;20422;-83
2022/10/18 06:26:06;;;;;;;26.17;13.18;;;;;;;16.39;52.84;99967.53;4455532;32;20097;-82
2022/10/18 06:28:33;;;;;;;23.77;12.45;;;;;;;16.41;52.79;99972.75;4454463;32;20509;-83
2022/10/18 06:30:59;;;;;;;21.02;12.07;;;;;;;16.50;52.49;99969.56;4454408;32;20081;-83
2022/10/18 06:33:24;;;;;;;23.80;12.70;;;;;;;16.54;52.07;99971.06;4455514;32;20116;-83
2022/10/18 06:36:01;;;;;;;21.92;11.85;;;;;;;16.63;51.87;99975.84;4460365;32;20119;-83
2022/10/18 06:38:28;;;;;;;26.15;12.82;;;;;;;16.66;51.70;99978.31;4471091;32;20092;-83
2022/10/18 06:40:54;;;;;;;22.83;12.68;;;;;;;16.73;51.36;99975.25;4469936;32;20115;-83
2022/10/18 06:43:20;;;;;;;24.60;12.60;;;;;;;16.79;51.19;99967.78;4470206;32;20088;-83
2022/10/18 06:45:45;;;;;;;22.92;12.77;;;;;;;16.83;51.19;99972.00;4470020;32;20160;-83
2022/10/18 06:48:11;;;;;;;26.30;13.68;;;;;;;16.92;51.21;99967.03;4471306;32;20089;-83
2022/10/18 06:50:36;;;;;;;23.20;13.10;;;;;;;16.88;51.18;99974.34;4470988;32;20080;-83
2022/10/18 06:53:04;;;;;;;24.37;13.40;;;;;;;16.97;50.95;99972.94;4471237;32;20098;-82
2022/10/18 06:55:30;;;;;;;22.95;12.48;;;;;;;17.03;50.65;99977.87;4471205;32;20122;-83
2022/10/18 06:57:56;;;;;;;22.05;12.23;;;;;;;17.07;50.70;99977.63;4469893;32;20105;-83
2022/10/18 07:00:21;;;;;;;25.90;12.88;;;;;;;17.07;50.49;99976.72;4469540;32;20081;-83
2022/10/18 07:02:46;;;;;;;25.40;12.13;;;;;;;17.13;50.34;99987.00;4449006;32;20178;-83
2022/10/18 07:05:12;;;;;;;22.17;12.82;;;;;;;17.17;50.13;99980.56;4469873;32;20400;-83
2022/10/18 07:07:38;;;;;;;20.77;11.82;;;;;;;17.25;49.78;99977.41;4470727;32;20152;-83
2022/10/18 07:10:04;;;;;;;24.42;13.10;;;;;;;17.29;49.92;99986.91;4470666;32;20448;-82
2022/10/18 07:12:30;;;;;;;23.50;12.35;;;;;;;17.31;49.53;99979.69;4470138;32;20084;-82
2022/10/18 07:14:55;;;;;;;25.37;13.02;;;;;;;17.35;49.68;99978.53;4470537;32;20474;-83
2022/10/18 07:17:21;;;;;;;22.95;12.68;;;;;;;17.36;49.69;99974.88;4470491;32;20085;-83
2022/10/18 07:19:46;;;;;;;24.10;11.88;;;;;;;17.36;49.63;99974.03;4470723;32;20436;-83
2022/10/18 07:22:12;;;;;;;21.52;12.93;;;;;;;17.13;50.30;99976.34;4470478;32;20125;-83
2022/10/18 07:24:37;;;;;;;22.60;12.65;;;;;;;17.38;49.81;99969.47;4471030;32;20150;-83
2022/10/18 07:27:03;;;;;;;23.25;12.18;;;;;;;17.47;48.87;99964.41;4468451;32;20445;-83
2022/10/18 07:29:28;;;;;;;22.60;12.77;;;;;;;17.51;48.71;99962.41;4455789;32;20107;-83
2022/10/18 07:31:54;;;;;;;26.23;14.23;;;;;;;17.47;48.57;99966.22;4456808;32;20137;-83
2022/10/18 07:34:19;;;;;;;24.02;13.52;;;;;;;17.47;48.69;99958.22;4456826;32;20085;-83
2022/10/18 07:36:44;;;;;;;25.67;13.62;;;;;;;17.51;48.43;99964.22;4456852;32;20108;-82
2022/10/18 07:39:10;;;;;;;25.00;14.57;;;;;;;17.48;48.71;99959.94;4455547;32;20141;-83
2022/10/18 07:41:35;;;;;;;23.92;14.43;;;;;;;17.42;49.06;99963.87;4456834;32;20103;-83
2022/10/18 07:44:03;;;;;;;28.52;13.70;;;;;;;16.95;50.16;99961.53;4455489;32;20408;-83
2022/10/18 07:46:28;;;;;;;29.67;15.30;;;;;;;17.24;49.45;99957.88;4455683;32;20123;-83
2022/10/18 07:48:54;;;;;;;26.77;14.50;;;;;;;16.50;51.53;99962.41;4455659;32;20192;-82
2022/10/18 07:51:19;;;;;;;27.95;13.88;;;;;;;17.00;50.29;99954.13;4455908;32;20333;-83
2022/10/18 07:53:45;;;;;;;24.02;13.30;;;;;;;17.20;49.51;99951.03;4455686;32;20495;-83
2022/10/18 07:56:19;;;;;;;25.67;13.23;;;;;;;17.23;49.50;99950.00;4455757;32;20491;-83
2022/10/18 07:58:50;;;;;;;24.65;13.02;;;;;;;17.21;49.36;99951.91;4443072;32;20111;-83
2022/10/18 08:01:15;;;;;;;26.10;12.82;;;;;;;17.37;49.29;99949.13;4455543;32;20486;-83
2022/10/18 08:03:41;;;;;;;24.50;13.48;;;;;;;17.41;48.98;99947.97;4455285;32;20124;-83
2022/10/18 08:06:08;;;;;;;25.08;13.15;;;;;;;17.53;49.02;99946.31;4456565;32;20085;-83
2022/10/18 08:08:34;;;;;;;21.45;12.90;;;;;;;17.54;48.88;99950.69;4455765;32;20124;-83
2022/10/18 08:11:08;;;;;;;23.42;12.23;;;;;;;17.05;48.67;99941.38;4456256;32;20456;-83
2022/10/18 08:13:34;;;;;;;21.77;12.32;;;;;;;17.41;47.67;99940.84;4455432;32;20180;-83
2022/10/18 08:16:02;;;;;;;20.42;12.02;;;;;;;17.52;47.09;99936.59;4461293;32;20238;-81
2022/10/18 08:18:28;;;;;;;25.00;13.07;;;;;;;17.57;47.25;99934.50;4472129;32;20097;-82
2022/10/18 08:20:53;;;;;;;24.98;12.68;;;;;;;17.59;47.04;99927.28;4471967;32;20181;-83
2022/10/18 08:23:19;;;;;;;23.48;12.43;;;;;;;17.69;46.76;99925.69;4471941;32;20100;-82
2022/10/18 08:25:44;;;;;;;23.17;13.02;;;;;;;17.67;45.97;99927.63;4470866;32;20109;-83
2022/10/18 08:28:09;;;;;;;20.60;12.85;;;;;;;17.76;45.87;99919.03;4471895;32;20107;-83
2022/10/18 08:30:35;;;;;;;27.85;12.75;;;;;;;17.76;46.01;99910.19;4471931;32;20085;-82
2022/10/18 08:33:01;;;;;;;24.05;12.02;;;;;;;17.75;45.67;99908.44;4471942;32;20118;-83
2022/10/18 08:35:27;;;;;;;20.27;12.25;;;;;;;17.80;45.12;99915.19;4457763;32;20138;-82
2022/10/18 08:37:53;;;;;;;19.17;11.20;;;;;;;17.80;44.92;99903.69;4471295;32;20455;-82
2022/10/18 08:40:19;;;;;;;18.80;10.80;;;;;;;17.83;44.91;99896.34;4470734;32;20433;-82
2022/10/18 08:43:09;;;;;;;22.23;11.48;;;;;;;17.83;44.21;99899.00;4471757;32;20101;-82
2022/10/18 08:45:37;;;;;;;21.65;11.68;;;;;;;17.72;44.47;99906.84;4469533;32;20080;-83
2022/10/18 08:48:03;;;;;;;20.92;10.50;;;;;;;17.83;44.14;99899.00;4471909;32;20515;-83
2022/10/18 08:50:35;;;;;;;22.13;10.00;;;;;;;17.92;43.27;99902.03;4470742;32;20081;-87
2022/10/18 08:53:05;;;;;;;21.98;10.95;;;;;;;18.01;42.99;99888.09;4470583;32;20104;-86
2022/10/18 08:55:35;;;;;;;18.37;10.32;;;;;;;18.07;42.61;99887.66;4470725;32;20452;-86
2022/10/18 08:58:14;;;;;;;21.40;10.93;;;;;;;18.09;42.66;99888.41;4471847;32;20088;-86
2022/10/18 09:00:42;;;;;;;18.40;8.73;;;;;;;18.15;42.97;99881.81;4470665;32;20145;-86
2022/10/18 09:03:16;;;;;;;18.87;8.95;;;;;;;18.23;41.35;99884.78;4471655;32;20096;-86
2022/10/18 09:05:50;;;;;;;20.33;9.38;;;;;;;18.08;41.78;99884.91;4471910;32;20111;-87
2022/10/18 09:08:27;;;;;;;17.98;9.73;;;;;;;18.21;41.84;99881.38;4470712;32;20110;-86
2022/10/18 09:11:05;;;;;;;20.00;9.85;;;;;;;18.28;41.83;99877.34;4471859;32;20085;-84
2022/10/18 09:14:07;;;;;;;17.45;8.85;;;;;;;18.41;40.85;99872.88;4471675;32;20127;-85
2022/10/18 09:16:38;;;;;;;18.52;9.40;;;;;;;18.38;41.79;99869.56;4471989;32;20085;-83
2022/10/18 09:19:09;;;;;;;17.75;9.02;;;;;;;18.37;41.39;99868.69;4471686;32;20456;-83
2022/10/18 09:21:47;;;;;;;16.75;8.20;;;;;;;18.44;41.10;99861.97;4471670;32;20088;-86
2022/10/18 09:24:48;;;;;;;18.12;8.20;;;;;;;18.54;40.99;99867.50;4470364;32;20492;-86
2022/10/18 09:27:17;;;;;;;15.52;8.15;;;;;;;18.55;40.25;99863.87;4470163;32;20589;-86
2022/10/18 09:29:54;;;;;;;14.85;7.20;;;;;;;18.54;40.17;99862.16;4471911;32;20093;-86
2022/10/18 09:32:37;;;;;;;16.37;7.40;;;;;;;18.64;39.77;99852.56;4471420;32;20117;-85
2022/10/18 09:35:12;;;;;;;15.15;7.80;;;;;;;18.60;39.25;99855.53;4471698;32;20096;-86
2022/10/18 09:37:38;;;;;;;14.43;7.18;;;;;;;18.57;39.61;99851.28;4471704;32;20081;-86
2022/10/18 09:40:20;;;;;;;16.35;6.53;;;;;;;18.69;39.44;99856.72;4470267;32;20144;-86
2022/10/18 09:43:21;;;;;;;15.65;6.90;;;;;;;18.77;39.78;99854.34;4470185;32;20084;-87
2022/10/18 09:45:47;;;;;;;15.98;7.10;;;;;;;18.80;38.89;99852.34;4438096;32;20094;-85
2022/10/18 09:48:24;;;;;;;11.35;6.10;;;;;;;18.91;38.68;99838.25;4424059;32;20436;-84
2022/10/18 09:51:10;;;;;;;14.68;6.37;;;;;;;18.85;38.19;99836.88;4438063;32;20135;-86
2022/10/18 09:53:43;;;;;;;13.35;6.28;;;;;;;18.95;38.12;99836.16;4425576;32;20105;-86
2022/10/18 09:56:13;;;;;;;14.70;6.53;;;;;;;18.95;38.14;99834.37;4438228;32;20132;-86
2022/10/18 09:58:45;;;;;;;14.23;6.30;;;;;;;18.98;37.96;99826.13;4438287;32;20883;-86
2022/10/18 10:01:13;;;;;;;14.20;6.30;;;;;;;19.00;38.04;99826.03;4438070;32;20085;-86
2022/10/18 10:03:39;;;;;;;12.80;5.85;;;;;;;18.91;37.96;99824.00;4438001;32;20126;-85
2022/10/18 10:06:10;;;;;;;15.45;5.87;;;;;;;18.88;38.13;99818.91;4425193;32;20132;-83
2022/10/18 10:08:36;;;;;;;14.48;5.82;;;;;;;19.11;37.34;99822.56;4438067;32;20114;-83
2022/10/18 10:11:02;;;;;;;11.65;5.87;;;;;;;19.15;37.03;99813.38;4425223;32;20139;-83
2022/10/18 10:13:27;;;;;;;14.35;5.65;;;;;;;19.11;37.46;99802.06;4425180;32;20206;-83
2022/10/18 10:16:00;;;;;;;14.95;5.45;;;;;;;19.09;37.75;99809.31;4438042;32;20121;-85
2022/10/18 10:18:29;;;;;;;17.23;6.32;;;;;;;18.84;38.44;99808.44;4425245;32;20484;-86
2022/10/18 10:21:01;;;;;;;13.20;5.90;;;;;;;19.12;37.66;99798.41;4438017;32;20093;-85
2022/10/18 10:23:32;;;;;;;12.18;5.47;;;;;;;19.30;37.30;99801.53;4469950;32;20102;-85
2022/10/18 10:26:00;;;;;;;13.68;5.47;;;;;;;19.28;36.90;99792.78;4471337;32;20097;-85
2022/10/18 10:28:34;;;;;;;16.25;5.45;;;;;;;19.42;36.64;99786.41;4471195;32;20097;-85
2022/10/18 10:31:23;;;;;;;13.10;4.93;;;;;;;19.47;36.32;99791.38;4470110;32;20093;-85
2022/10/18 10:34:00;;;;;;;13.62;5.43;;;;;;;19.51;35.85;99792.84;4471120;32;20064;-85
2022/10/18 10:36:26;;;;;;;19.23;5.70;;;;;;;19.39;35.97;99786.63;4471131;32;20452;-85
2022/10/18 10:39:06;;;;;;;12.80;5.18;;;;;;;19.37;35.82;99784.09;4469862;32;20203;-84
2022/10/18 10:41:32;;;;;;;12.45;5.43;;;;;;;19.36;36.34;99781.53;4471043;32;20154;-85
2022/10/18 10:44:01;;;;;;;15.55;5.30;;;;;;;19.34;35.62;99770.09;4469806;32;20088;-85
2022/10/18 10:46:34;;;;;;;13.13;5.60;;;;;;;19.38;35.86;99769.75;4470973;32;20225;-85
2022/10/18 10:48:59;;;;;;;10.63;4.85;;;;;;;19.59;35.78;99766.44;4470844;32;20167;-84
2022/10/18 10:51:35;;;;;;;13.45;5.75;;;;;;;19.52;35.50;99766.03;4470784;32;20088;-85
2022/10/18 10:54:16;;;;;;;15.48;5.37;;;;;;;19.56;35.33;99763.97;4470816;32;20104;-85
2022/10/18 10:57:03;;;;;;;12.63;4.90;;;;;;;19.54;35.85;99764.09;4469681;32;20373;-85
2022/10/18 10:59:31;;;;;;;12.88;5.32;;;;;;;19.50;36.03;99762.63;4470552;32;20100;-85
2022/10/18 11:02:22;;;;;;;11.57;5.15;;;;;;;19.36;36.31;99752.13;4469519;32;20096;-85
2022/10/18 11:04:53;;;;;;;12.37;5.75;;;;;;;19.62;36.12;99753.69;4466048;32;20133;-85
2022/10/18 11:07:27;;;;;;;11.85;5.10;;;;;;;19.69;35.79;99750.53;4469790;32;20117;-85
2022/10/18 11:09:55;;;;;;;11.18;5.20;;;;;;;19.63;35.69;99744.69;4470798;32;20111;-85
2022/10/18 11:12:26;;;;;;;16.02;5.80;;;;;;;19.49;36.01;99744.91;4470577;32;20089;-85
2022/10/18 11:15:19;;;;;;;13.35;5.07;;;;;;;19.28;36.28;99746.50;4470680;32;20139;-85
2022/10/18 11:18:13;;;;;;;12.27;5.10;;;;;;;19.68;36.30;99738.97;4467014;32;20203;-86
2022/10/18 11:20:52;;;;;;;12.40;4.95;;;;;;;19.83;35.46;99737.81;4469673;32;20097;-85
2022/10/18 11:23:18;;;;;;;12.20;5.55;;;;;;;19.68;36.27;99733.63;4469139;32;20448;-85
2022/10/18 11:25:56;;;;;;;14.50;5.87;;;;;;;19.76;36.05;99728.59;4470459;32;20112;-85